Have a Safe July 4th! 

Flight Track Log - Related Links

Times and Time Zones

All times are in EDT time to prevent confusion due to time zone crossing. See the N82HK flight status page for this flight to view local times or setup timezone preferences in your user account.

Time Position Orientation Groundspeed Altitude Reporting Facility
EDT Latitude Longitude Course Direction KTS MPH feet Rate Location/Type
Sun 06:11:00 PM 42.9947 -106.6000 311° West 115 132 8,400  Level Denver Center
Sun 06:12:02 PM 43.0206 -106.6453 308° West 126 145 8,900 484 Climbing Denver Center
Sun 06:13:00 PM 43.0620 -106.7211 311° West  Level FlightAware Approximate
Sun 06:13:04 PM 43.0442 -106.6814 312° West 131 151 9,400  Level Denver Center
Sun 06:14:00 PM 43.0900 -106.7652 311° West  Level FlightAware Approximate
Sun 06:14:06 PM 43.0692 -106.7189 312° West 124 143 9,900  Level Denver Center
Sun 06:15:00 PM 43.1181 -106.8093 311° West  Level FlightAware Approximate
Sun 06:15:08 PM 43.0869 -106.7556 304° West 122 140 10,400  Level Denver Center
Sun 06:16:10 PM 43.1136 -106.7969 311° West 130 150 10,900 387 Climbing Denver Center
Sun 06:17:12 PM 43.1389 -106.8353 312° West 140 161 11,200 384 Climbing Denver Center
Sun 06:18:15 PM 43.1628 -106.8753 309° West 135 155 11,700 384 Climbing Denver Center
Sun 06:19:17 PM 43.1883 -106.9167 310° West 140 161 12,000 145 Climbing Denver Center
Sun 06:20:19 PM 43.2150 -106.9581 311° West 143 165 12,000  Level Denver Center
Sun 06:21:21 PM 43.2506 -107.0136 311° West 158 182 12,000  Level Denver Center
Sun 06:22:23 PM 43.2778 -107.0625 307° West 161 185 12,000  Level Denver Center
Sun 06:23:25 PM 43.3069 -107.1053 313° West 155 178 12,000  Level Denver Center
Sun 06:24:27 PM 43.3358 -107.1506 311° West 158 182 12,000  Level Denver Center
Sun 06:25:29 PM 43.3636 -107.1967 310° West 157 181 12,000 48 Level Denver Center
Sun 06:26:31 PM 43.3908 -107.2419 310° West 154 177 12,100 48 Climbing Denver Center
Sun 06:27:33 PM 43.4244 -107.2967 310° West 156 180 12,100  Level Denver Center
Sun 06:28:35 PM 43.4522 -107.3419 310° West 156 180 12,100  Level Denver Center
Sun 06:29:37 PM 43.4814 -107.3847 313° West 155 178 12,100  Level Denver Center
Sun 06:30:39 PM 43.5086 -107.4325 308° West 156 180 12,100  Level Denver Center
Sun 06:31:41 PM 43.5389 -107.4806 311° West 160 184 12,100  Level Denver Center
Sun 06:32:43 PM 43.5683 -107.5275 311° West 162 186 12,100  Level Denver Center
Sun 06:33:45 PM 43.6019 -107.5875 308° West 163 188 12,100  Level Denver Center
Sun 06:34:47 PM 43.6331 -107.6364 311° West 166 191 12,100  Level Denver Center
Sun 06:35:49 PM 43.6644 -107.6858 311° West 169 194 12,100  Level Denver Center
Sun 06:36:51 PM 43.6953 -107.7336 312° West 168 193 12,100  Level Denver Center
Sun 06:37:53 PM 43.7242 -107.7836 309° West 168 193 12,100  Level Denver Center
Sun 06:38:55 PM 43.7550 -107.8358 309° West 170 196 12,100  Level Denver Center
Sun 06:39:57 PM 43.7850 -107.8856 310° West 170 196 12,100  Level Denver Center
Sun 06:40:59 PM 43.8197 -107.9447 309° West 168 193 12,100 -43 Level Denver Center
Sun 06:42:17 PM 43.8539 -108.0036 309° West 166 191 12,000 -43 Descending Salt Lake Center
Sun 06:43:19 PM 43.8839 -108.0511 311° West 164 189 12,000  Level Salt Lake Center
Sun 06:44:21 PM 43.9117 -108.0992 309° West 162 186 12,000  Level Salt Lake Center
Sun 06:45:23 PM 43.9481 -108.1603 310° West 165 190 12,000  Level Salt Lake Center
Sun 06:46:25 PM 43.9797 -108.2125 310° West 171 197 12,000  Level Salt Lake Center
Sun 06:47:26 PM 44.0100 -108.2622 310° West 172 198 12,000 49 Level Salt Lake Center
Sun 06:48:28 PM 44.0403 -108.3122 310° West 170 196 12,100 48 Climbing Salt Lake Center
Sun 06:49:30 PM 44.0692 -108.3611 309° West 168 193 12,100  Level Salt Lake Center
Sun 06:50:32 PM 44.0994 -108.4089 311° West 166 191 12,100  Level Salt Lake Center
Sun 06:51:34 PM 44.1292 -108.4614 308° West 168 193 12,100 -48 Level Salt Lake Center
Sun 06:52:36 PM 44.1642 -108.5217 309° West 168 193 12,000  Descending Salt Lake Center
Sun 06:53:38 PM 44.1953 -108.5706 312° West 168 193 12,100 48 Climbing Salt Lake Center
Sun 06:54:40 PM 44.2239 -108.6211 308° West 168 193 12,100  Level Salt Lake Center
Sun 06:55:41 PM 44.2522 -108.6703 309° West 166 191 12,100 65 Level Salt Lake Center
Sun 06:57:00 PM 44.2879 -108.7328 309° West  Level FlightAware Approximate
Sun 06:57:45 PM 44.3108 -108.7697 310° West 166 191 12,300  Level Salt Lake Center
Sun 06:59:49 PM 44.3678 -108.8661 310° West 152 175 13,300 516 Climbing Salt Lake Center
Sun 07:00:51 PM 44.3925 -108.9064 311° West 146 168 13,900 581 Climbing Salt Lake Center
Sun 07:01:53 PM 44.4108 -108.9403 309° West 128 147 14,500 488 Climbing Salt Lake Center
Sun 07:02:00 PM 44.4230 -108.9594 309° West  Level FlightAware Approximate
Sun 07:02:54 PM 44.4328 -108.9761 311° West 122 140 14,900  Level Salt Lake Center
Sun 07:03:56 PM 44.4569 -109.0183 309° West 132 152 15,000 48 Climbing Salt Lake Center
Sun 07:04:00 PM 44.4810 -109.0625 310° West  Level FlightAware Approximate
Sun 07:04:58 PM 44.4839 -109.0656 309° West 148 170 15,000  Level Salt Lake Center
Sun 07:06:00 PM 44.5164 -109.1233 308° West 156 180 15,000  Level Salt Lake Center
Sun 07:07:02 PM 44.5442 -109.1692 310° West 155 178 15,000  Level Salt Lake Center
Sun 07:08:03 PM 44.5697 -109.2139 309° West 151 174 15,000  Level Salt Lake Center
Sun 07:09:00 PM 44.6084 -109.2834 309° West  Level FlightAware Approximate
Sun 07:09:05 PM 44.5961 -109.2619 308° West 153 176 15,000  Level Salt Lake Center
Sun 07:10:00 PM 44.6348 -109.3298 309° West  Level FlightAware Approximate
Sun 07:10:07 PM 44.6281 -109.3136 311° West 159 183 15,000  Level Salt Lake Center
Sun 07:11:09 PM 44.6542 -109.3614 308° West 164 189 15,000  Level Salt Lake Center
Sun 07:12:11 PM 44.6853 -109.4100 312° West 166 191 15,000  Level Salt Lake Center
Sun 07:13:12 PM 44.7178 -109.4708 307° West 164 189 15,000  Level Salt Lake Center
Sun 07:14:14 PM 44.7458 -109.5200 309° West 162 186 15,000  Level Salt Lake Center
Sun 07:15:16 PM 44.7775 -109.5719 311° West 169 194 15,000  Level Salt Lake Center
Sun 07:16:18 PM 44.8069 -109.6236 309° West 171 197 15,000 -49 Level Salt Lake Center
Sun 07:17:19 PM 44.8358 -109.6750 308° West 169 194 14,900 -49 Descending Salt Lake Center
Sun 07:18:21 PM 44.8639 -109.7242 309° West 164 189 14,900  Level Salt Lake Center
Sun 07:19:23 PM 44.8911 -109.7750 307° West 162 186 14,900  Level Salt Lake Center
Sun 07:20:25 PM 44.9247 -109.8353 308° West 163 188 14,900  Level Salt Lake Center
Sun 07:21:27 PM 44.9556 -109.8856 311° West 165 190 14,900  Level Salt Lake Center
Sun 07:22:28 PM 44.9808 -109.9325 307° West 161 185 14,900 -49 Level Salt Lake Center
Sun 07:23:30 PM 45.0058 -109.9792 307° West 157 181 14,800  Descending Salt Lake Center
Sun 07:24:32 PM 45.0389 -110.0364 309° West 164 189 14,900  Climbing Salt Lake Center
Sun 07:25:34 PM 45.0689 -110.0908 308° West 178 205 14,800  Descending Salt Lake Center
Sun 07:26:35 PM 45.0997 -110.1453 309° West 165 190 14,900  Climbing Salt Lake Center
Sun 07:27:37 PM 45.1278 -110.1981 307° West 158 182 14,800 48 Descending Salt Lake Center
Sun 07:28:39 PM 45.1544 -110.2478 307° West 158 182 15,000 97 Climbing Salt Lake Center
Sun 07:29:41 PM 45.1842 -110.2989 310° West 166 191 15,000  Level Salt Lake Center
Sun 07:30:42 PM 45.2147 -110.3536 308° West 174 200 15,000  Level Salt Lake Center
Sun 07:31:44 PM 45.2444 -110.4081 308° West 171 197 15,000  Level Salt Lake Center
Sun 07:32:46 PM 45.2703 -110.4558 308° West 164 189 15,000 48 Level Salt Lake Center
Sun 07:33:48 PM 45.3042 -110.5153 309° West 170 196 15,100  Climbing Salt Lake Center
Sun 07:34:50 PM 45.3328 -110.5678 308° West 174 200 15,000 -49 Descending Salt Lake Center
Sun 07:35:51 PM 45.3603 -110.6169 309° West 168 193 15,000  Level Salt Lake Center
Sun 07:36:53 PM 45.3933 -110.6769 308° West 160 184 15,000  Level Salt Lake Center
Sun 07:37:55 PM 45.4206 -110.7256 309° West 158 182 15,000  Level Salt Lake Center
Sun 07:38:57 PM 45.4475 -110.7761 307° West 159 183 15,000  Level Salt Lake Center
Sun 07:39:59 PM 45.4756 -110.8281 308° West 164 189 15,000  Level Salt Lake Center
Sun 07:41:01 PM 45.5036 -110.8792 308° West 163 188 15,000  Level Salt Lake Center
Sun 07:42:02 PM 45.5308 -110.9306 307° West 163 188 15,000  Level Salt Lake Center
Sun 07:43:04 PM 45.5589 -110.9808 309° West 162 186 15,000  Level Salt Lake Center
Sun 07:44:06 PM 45.5861 -111.0314 308° West 161 185 15,000  Level Salt Lake Center
Sun 07:45:08 PM 45.6178 -111.0897 308° West 156 180 15,000  Level Salt Lake Center
Sun 07:46:10 PM 45.6442 -111.1394 307° West 155 178 15,000  Level Salt Lake Center
Sun 07:47:12 PM 45.6717 -111.1897 308° West 157 181 15,000  Level Salt Lake Center
Sun 07:48:14 PM 45.6992 -111.2419 307° West 162 186 15,000  Level Salt Lake Center
Sun 07:49:15 PM 45.7258 -111.2925 307° West 158 182 15,000  Level Salt Lake Center
Sun 07:50:17 PM 45.7536 -111.3425 309° West 158 182 15,000  Level Salt Lake Center
Sun 07:51:19 PM 45.7797 -111.3908 308° West 154 177 15,000  Level Salt Lake Center
Sun 07:52:21 PM 45.8056 -111.4397 307° West 153 176 15,000  Level Salt Lake Center
Sun 07:53:23 PM 45.8314 -111.4872 308° West 151 174 15,000  Level Salt Lake Center
Sun 07:54:25 PM 45.8625 -111.5461 307° West 152 175 15,000 48 Level Salt Lake Center
Sun 07:55:27 PM 45.8878 -111.5936 307° West 152 175 15,100  Climbing Salt Lake Center
Sun 07:56:29 PM 45.9131 -111.6439 306° West 152 175 15,000 -49 Descending Salt Lake Center
Sun 07:57:30 PM 45.9411 -111.6953 308° West 162 186 15,000  Level Salt Lake Center
Sun 07:58:32 PM 45.9683 -111.7469 307° West 161 185 15,000  Level Salt Lake Center
Sun 07:59:34 PM 45.9956 -111.7981 307° West 161 185 15,000  Level Salt Lake Center
Sun 08:00:36 PM 46.0222 -111.8494 307° West 162 186 15,000  Level Salt Lake Center
Sun 08:01:38 PM 46.0531 -111.9078 307° West 155 178 15,000  Level Salt Lake Center
Sun 08:02:40 PM 46.0800 -111.9603 307° West 160 184 15,000  Level Salt Lake Center
Sun 08:03:41 PM 46.1078 -112.0128 307° West 165 190 15,000  Level Salt Lake Center
Sun 08:04:43 PM 46.1358 -112.0661 307° West 167 192 15,000  Level Salt Lake Center
Sun 08:05:45 PM 46.1644 -112.1186 308° West 167 192 15,000  Level Salt Lake Center
Sun 08:06:47 PM 46.1897 -112.1719 304° West 161 185 15,000  Level Salt Lake Center
Sun 08:07:48 PM 46.2183 -112.2261 307° West 168 193 15,000  Level Salt Lake Center
Sun 08:08:50 PM 46.2522 -112.2917 307° West 170 196 15,000 48 Level Salt Lake Center
Sun 08:09:52 PM 46.2808 -112.3447 308° West 168 193 15,100  Climbing Salt Lake Center
Sun 08:10:54 PM 46.3081 -112.3997 306° West 167 192 15,000  Descending Salt Lake Center
Sun 08:11:55 PM 46.3336 -112.4525 305° West 163 188 15,100 49 Climbing Salt Lake Center
Sun 08:12:57 PM 46.3636 -112.5042 310° West 165 190 15,100  Level Salt Lake Center
Sun 08:13:59 PM 46.3911 -112.5575 307° West 166 191 15,100  Level Salt Lake Center
Sun 08:15:00 PM 46.4178 -112.6097 307° West 163 188 15,100 -98 Level Salt Lake Center
Sun 08:16:02 PM 46.4436 -112.6603 307° West 163 188 14,900 -97 Descending Salt Lake Center
Sun 08:17:04 PM 46.4753 -112.7244 306° West 164 189 14,900  Level Salt Lake Center
Sun 08:18:05 PM 46.5028 -112.7769 307° West 163 188 14,900  Level Salt Lake Center
Sun 08:19:07 PM 46.5292 -112.8292 306° West 161 185 14,900  Level Salt Lake Center
Sun 08:20:09 PM 46.5556 -112.8819 306° West 162 186 14,900  Level Salt Lake Center
Sun 08:21:10 PM 46.5828 -112.9344 307° West 162 186 14,900  Level Salt Lake Center
Sun 08:22:12 PM 46.6089 -112.9875 306° West 162 186 14,900  Level Salt Lake Center
Sun 08:23:14 PM 46.6356 -113.0414 306° West 163 188 14,900  Level Salt Lake Center
Sun 08:24:15 PM 46.6694 -113.1072 307° West 169 194 14,900  Level Salt Lake Center
Sun 08:25:17 PM 46.6925 -113.1544 305° West 163 188 14,900  Level Salt Lake Center
Sun 08:26:18 PM 46.7206 -113.2081 307° West 165 190 14,900  Level Salt Lake Center
Sun 08:27:20 PM 46.7467 -113.2622 305° West 164 189 14,900 48 Level Salt Lake Center
Sun 08:28:22 PM 46.7792 -113.3264 307° West 163 188 15,000 49 Climbing Salt Lake Center
Sun 08:29:23 PM 46.8067 -113.3814 306° West 168 193 15,000  Level Salt Lake Center
Sun 08:30:25 PM 46.8336 -113.4353 306° West 155 178 15,000  Level Salt Lake Center
Sun 08:31:27 PM 46.8586 -113.4861 306° West 154 177 15,000  Level Salt Lake Center
Sun 08:32:28 PM 46.8833 -113.5375 305° West 155 178 15,000  Level Salt Lake Center
Sun 08:33:30 PM 46.9108 -113.5933 306° West 158 182 15,000  Level Salt Lake Center
Sun 08:34:32 PM 46.9358 -113.6431 306° West 154 177 15,000  Level Salt Lake Center
Sun 08:35:33 PM 46.9633 -113.6992 306° West 157 181 15,000  Level Salt Lake Center
Sun 08:36:35 PM 46.9883 -113.7511 305° West 158 182 15,000  Level Salt Lake Center
Sun 08:37:37 PM 47.0144 -113.8014 307° West 157 181 15,000  Level Salt Lake Center
Sun 08:38:38 PM 47.0417 -113.8581 305° West 158 182 15,000  Level Salt Lake Center
Sun 08:39:40 PM 47.0667 -113.9108 305° West 158 182 15,000  Level Salt Lake Center
Sun 08:40:42 PM 47.0919 -113.9633 305° West 158 182 15,000  Level Salt Lake Center
Sun 08:41:43 PM 47.1203 -114.0197 306° West 159 183 15,000  Level Salt Lake Center
Sun 08:42:45 PM 47.1461 -114.0736 305° West 161 185 15,000  Level Salt Lake Center
Sun 08:43:46 PM 47.1747 -114.1311 306° West 162 186 15,000 -49 Level Salt Lake Center
Sun 08:44:48 PM 47.2000 -114.1828 306° West 162 186 14,900  Descending Salt Lake Center
Sun 08:45:50 PM 47.2269 -114.2372 306° West 165 190 15,000 49 Climbing Salt Lake Center
Sun 08:46:51 PM 47.2531 -114.2944 304° West 169 194 15,000 -49 Level Salt Lake Center
Sun 08:47:53 PM 47.2808 -114.3486 307° West 167 192 14,900  Descending Salt Lake Center
Sun 08:48:55 PM 47.3072 -114.4072 304° West 172 198 15,000 49 Climbing Salt Lake Center
Sun 08:49:56 PM 47.3344 -114.4622 306° West 167 192 15,000  Level Salt Lake Center
Sun 08:50:58 PM 47.3664 -114.5281 306° West 168 193 15,000  Level Salt Lake Center
Sun 08:51:59 PM 47.3944 -114.5900 304° West 167 192 15,000  Level Salt Lake Center
Sun 08:53:01 PM 47.4214 -114.6458 306° West 167 192 15,000  Level Salt Lake Center
Sun 08:54:03 PM 47.4478 -114.7008 305° West 170 196 15,000  Level Salt Lake Center
Sun 08:55:04 PM 47.4750 -114.7583 305° West 171 197 15,000  Level Salt Lake Center
Sun 08:56:06 PM 47.5011 -114.8139 305° West 165 190 15,000  Level Salt Lake Center
Sun 08:57:07 PM 47.5275 -114.8681 306° West 163 188 15,000  Level Salt Lake Center
Sun 08:58:09 PM 47.5542 -114.9253 305° West 168 193 15,000  Level Salt Lake Center
Sun 08:59:10 PM 47.5806 -114.9814 305° West 166 191 15,000  Level Salt Lake Center
Sun 09:00:12 PM 47.6128 -115.0486 305° West 167 192 15,000  Level Salt Lake Center
Sun 09:01:14 PM 47.6397 -115.1081 304° West 171 197 15,000  Level Salt Lake Center
Sun 09:02:15 PM 47.6669 -115.1656 305° West 171 197 15,000 -98 Level Salt Lake Center
Sun 09:03:17 PM 47.6936 -115.2222 305° West 169 194 14,800 -341 Descending Salt Lake Center
Sun 09:04:18 PM 47.7211 -115.2828 304° West 173 199 14,300 -488 Descending Salt Lake Center
Sun 09:05:20 PM 47.7508 -115.3461 305° West 182 209 13,800 -488 Descending Salt Lake Center
Sun 09:06:21 PM 47.7794 -115.4069 305° West 181 208 13,300 -439 Descending Salt Lake Center
Sun 09:07:23 PM 47.8069 -115.4658 305° West 177 204 12,900 -435 Descending Salt Lake Center
Sun 09:08:39 PM 47.8419 -115.5442 304° West 177 204 12,300 -482 Descending Seattle Center
Sun 09:09:40 PM 47.8697 -115.6039 305° West 176 203 11,800 -488 Descending Seattle Center
Sun 09:10:42 PM 47.9028 -115.6764 304° West 177 204 11,300 -484 Descending Seattle Center

Login

Don't have an account? Register now (free) for customized features, flight alerts, and more!